createdAt,value
2018-07-12T00:00:14.095Z,100900.53
2018-07-12T00:02:41.404Z,100905.19
2018-07-12T00:05:08.742Z,100903.94
2018-07-12T00:07:36.083Z,100904.73
2018-07-12T00:10:03.436Z,100901.45
2018-07-12T00:12:30.772Z,100900.11
2018-07-12T00:14:58.104Z,100899.06
2018-07-12T00:17:25.449Z,100900.17
2018-07-12T00:19:52.758Z,100900.93
2018-07-12T00:22:20.138Z,100893.88
2018-07-12T00:24:47.725Z,100899.18
2018-07-12T00:27:15.394Z,100905.19
2018-07-12T00:29:42.749Z,100900.53
2018-07-12T00:32:10.060Z,100902.40
2018-07-12T00:34:37.389Z,100901.27
2018-07-12T00:37:05.579Z,100902.03
2018-07-12T00:39:32.954Z,100898.29
2018-07-12T00:42:00.290Z,100897.98
2018-07-12T00:44:27.683Z,100901.93
2018-07-12T00:46:55.007Z,100900.06
2018-07-12T00:49:22.341Z,100902.14
2018-07-12T00:51:49.685Z,100902.76
2018-07-12T00:54:17.065Z,100902.76
2018-07-12T00:56:44.420Z,100905.45
2018-07-12T00:59:11.777Z,100904.41
2018-07-12T01:01:39.245Z,100901.72
2018-07-12T01:04:06.581Z,100902.76
2018-07-12T01:06:33.948Z,100895.86
2018-07-12T01:09:01.580Z,100896.42
2018-07-12T01:11:29.138Z,100893.52
2018-07-12T01:13:56.759Z,100891.28
2018-07-12T01:16:24.155Z,100894.61
2018-07-12T01:18:51.520Z,100893.09
2018-07-12T01:21:18.969Z,100893.55
2018-07-12T01:23:46.374Z,100892.75
2018-07-12T01:26:13.737Z,100888.33
2018-07-12T01:28:41.101Z,100888.98
2018-07-12T01:31:08.443Z,100889.20
2018-07-12T01:33:35.783Z,100885.47
2018-07-12T01:36:03.186Z,100887.67
2018-07-12T01:38:30.586Z,100883.02
2018-07-12T01:40:58.211Z,100875.81
2018-07-12T01:43:25.552Z,100875.86
2018-07-12T01:45:53.548Z,100866.25
2018-07-12T01:48:20.932Z,100873.91
2018-07-12T01:50:48.572Z,100866.46
2018-07-12T01:53:15.926Z,100865.84
2018-07-12T01:55:43.582Z,100867.08
2018-07-12T01:58:10.897Z,100869.06
2018-07-12T02:00:38.751Z,100867.20
2018-07-12T02:03:06.060Z,100869.40
2018-07-12T02:05:33.729Z,100862.75
2018-07-12T02:08:01.331Z,100862.67
2018-07-12T02:10:28.698Z,100876.00
2018-07-12T02:12:56.041Z,100866.87
2018-07-12T02:15:23.399Z,100869.67
2018-07-12T02:17:50.745Z,100865.42
2018-07-12T02:20:18.128Z,100865.12
2018-07-12T02:22:45.608Z,100865.41
2018-07-12T02:25:12.980Z,100867.45
2018-07-12T02:27:40.464Z,100868.25
2018-07-12T02:30:07.781Z,100863.77
2018-07-12T02:32:35.133Z,100859.91
2018-07-12T02:35:02.732Z,100856.70
2018-07-12T02:37:30.067Z,100854.45
2018-07-12T02:39:57.380Z,100853.52
2018-07-12T02:42:24.741Z,100847.82
2018-07-12T02:44:52.331Z,100845.78
2018-07-12T02:47:20.091Z,100845.28
2018-07-12T02:49:47.555Z,100832.30
2018-07-12T02:52:15.414Z,100822.83
2018-07-12T02:54:43.014Z,100831.98
2018-07-12T02:57:10.349Z,100827.11
2018-07-12T02:59:37.689Z,100820.00
2018-07-12T03:02:05.289Z,100818.95
2018-07-12T03:04:32.678Z,100814.80
2018-07-12T03:07:00.284Z,100815.12
2018-07-12T03:09:27.949Z,100815.10
2018-07-12T03:11:55.270Z,100806.52
2018-07-12T03:14:22.647Z,100810.36
2018-07-12T03:16:50.006Z,100799.61
2018-07-12T03:19:17.356Z,100799.09
2018-07-12T03:21:44.683Z,100795.77
2018-07-12T03:24:12.018Z,100789.80
2018-07-12T03:26:39.366Z,100792.06
2018-07-12T03:29:06.728Z,100781.42
2018-07-12T03:31:34.317Z,100785.34
2018-07-12T03:34:01.673Z,100784.00
2018-07-12T03:36:29.292Z,100776.97
2018-07-12T03:38:56.589Z,100776.13
2018-07-12T03:41:24.294Z,100772.22
2018-07-12T03:43:51.631Z,100772.22
2018-07-12T03:46:18.981Z,100769.72
2018-07-12T03:48:46.321Z,100766.72
2018-07-12T03:51:13.665Z,100766.63
2018-07-12T03:53:40.983Z,100769.31
2018-07-12T03:56:08.357Z,100772.72
2018-07-12T03:58:35.665Z,100769.83
2018-07-12T04:01:03.045Z,100760.53
2018-07-12T04:03:31.374Z,100751.20
2018-07-12T04:05:58.663Z,100753.89
2018-07-12T04:08:26.030Z,100756.80
2018-07-12T04:10:53.452Z,100746.56
2018-07-12T04:13:20.809Z,100746.97
2018-07-12T04:15:48.407Z,100753.48
2018-07-12T04:18:15.745Z,100755.45
2018-07-12T04:20:43.169Z,100740.36
2018-07-12T04:23:10.498Z,100747.48
2018-07-12T04:25:37.925Z,100746.66
2018-07-12T04:28:05.256Z,100745.00
2018-07-12T04:30:32.552Z,100744.27
2018-07-12T04:32:59.903Z,100745.08
2018-07-12T04:35:27.314Z,100724.72
2018-07-12T04:37:54.782Z,100718.52
2018-07-12T04:40:22.170Z,100713.24
2018-07-12T04:42:49.582Z,100713.34
2018-07-12T04:45:16.976Z,100701.68
2018-07-12T04:47:44.305Z,100703.54
2018-07-12T04:50:11.657Z,100692.77
2018-07-12T04:52:39.052Z,100684.70
2018-07-12T04:55:06.383Z,100687.77
2018-07-12T04:57:33.733Z,100674.25
2018-07-12T05:00:01.072Z,100674.33
2018-07-12T05:02:28.454Z,100665.02
2018-07-12T05:04:55.804Z,100655.51
2018-07-12T05:07:23.141Z,100652.23
2018-07-12T05:09:50.813Z,100645.79
2018-07-12T05:12:18.353Z,100648.96
2018-07-12T05:14:45.751Z,100637.55
2018-07-12T05:17:13.198Z,100627.41
2018-07-12T05:19:40.522Z,100624.41
2018-07-12T05:22:08.600Z,100619.72
2018-07-12T05:24:36.017Z,100610.71
2018-07-12T05:27:03.382Z,100609.33
2018-07-12T05:29:30.708Z,100606.80
2018-07-12T05:31:58.040Z,100589.20
2018-07-12T05:34:25.391Z,100598.88
2018-07-12T05:36:57.099Z,100599.05
2018-07-12T05:39:25.765Z,100585.99
2018-07-12T05:41:54.436Z,100564.83
2018-07-12T05:44:23.470Z,100588.95
2018-07-12T05:46:52.173Z,100603.64
2018-07-12T05:49:21.102Z,100592.59
2018-07-12T05:51:49.803Z,100657.86
2018-07-12T05:54:19.472Z,100637.44
2018-07-12T05:56:48.384Z,100614.95
2018-07-12T05:59:17.629Z,100621.56
2018-07-12T06:01:57.687Z,100635.43
2018-07-12T06:04:26.630Z,100628.11
2018-07-12T06:06:55.324Z,100629.21
2018-07-12T06:09:23.922Z,100638.22
2018-07-12T06:11:53.437Z,100642.10
2018-07-12T06:14:22.075Z,100646.84
2018-07-12T06:16:50.729Z,100643.17
2018-07-12T06:19:19.461Z,100640.71
2018-07-12T06:21:48.141Z,100643.20
2018-07-12T06:24:16.838Z,100647.63
2018-07-12T06:26:45.583Z,100645.52
2018-07-12T06:29:14.187Z,100649.21
2018-07-12T06:31:42.854Z,100649.66
2018-07-12T06:34:11.910Z,100649.16
2018-07-12T06:36:40.537Z,100652.88
2018-07-12T06:39:10.865Z,100657.45
2018-07-12T06:41:39.553Z,100666.81
2018-07-12T06:44:08.251Z,100670.78
2018-07-12T06:46:37.341Z,100679.27
2018-07-12T06:49:06.229Z,100679.08
2018-07-12T06:51:35.233Z,100685.18
2018-07-12T06:54:04.569Z,100687.58
2018-07-12T06:56:33.528Z,100693.19
2018-07-12T06:59:02.353Z,100693.58
2018-07-12T07:01:31.066Z,100692.56
2018-07-12T07:03:59.726Z,100693.58
2018-07-12T07:06:29.098Z,100684.87
2018-07-12T07:08:57.915Z,100691.93
2018-07-12T07:11:26.564Z,100691.41
2018-07-12T07:13:55.229Z,100682.18
2018-07-12T07:16:23.900Z,100691.48
2018-07-12T07:18:52.603Z,100692.44
2018-07-12T07:21:21.360Z,100688.25
2018-07-12T07:23:50.348Z,100687.42
2018-07-12T07:26:19.093Z,100691.56
2018-07-12T07:28:47.929Z,100692.97
2018-07-12T07:31:16.901Z,100702.58
2018-07-12T07:33:45.544Z,100700.77
2018-07-12T07:36:14.171Z,100704.28
2018-07-12T07:38:42.833Z,100701.59
2018-07-12T07:41:12.770Z,100695.97
2018-07-12T07:43:43.171Z,100700.97
2018-07-12T07:46:12.074Z,100702.31
2018-07-12T07:48:41.082Z,100697.49
2018-07-12T07:51:10.266Z,100705.06
2018-07-12T07:53:39.268Z,100700.80
2018-07-12T07:56:08.125Z,100701.72
2018-07-12T07:58:36.799Z,100692.84
2018-07-12T08:01:05.434Z,100698.41
2018-07-12T08:03:34.709Z,100705.45
2018-07-12T08:06:04.626Z,100699.15
2018-07-12T08:08:33.283Z,100702.89
2018-07-12T08:11:01.964Z,100697.06
2018-07-12T08:13:30.677Z,100698.58
2018-07-12T08:15:59.404Z,100693.75
2018-07-12T08:18:28.721Z,100691.14
2018-07-12T08:20:57.451Z,100694.58
2018-07-12T08:23:27.071Z,100692.41
2018-07-12T08:25:55.984Z,100691.83
2018-07-12T08:28:26.590Z,100687.53
2018-07-12T08:30:55.927Z,100692.41
2018-07-12T08:33:25.015Z,100699.98
2018-07-12T08:35:53.726Z,100698.10
2018-07-12T08:38:22.482Z,100691.97
2018-07-12T08:40:51.113Z,100701.27
2018-07-12T08:43:20.038Z,100712.47
2018-07-12T08:45:48.963Z,100709.37
2018-07-12T08:48:17.687Z,100712.80
2018-07-12T08:50:46.408Z,100724.30
2018-07-12T08:53:15.019Z,100727.52
2018-07-12T08:55:43.667Z,100734.53
2018-07-12T08:58:12.339Z,100735.36
2018-07-12T09:00:40.970Z,100737.92
2018-07-12T09:03:09.685Z,100745.42
2018-07-12T09:05:38.640Z,100734.68
2018-07-12T09:08:07.833Z,100755.66
2018-07-12T09:10:36.887Z,100750.42
2018-07-12T09:13:05.519Z,100750.95
2018-07-12T09:15:34.783Z,100755.83
2018-07-12T09:18:03.639Z,100760.30
2018-07-12T09:20:34.950Z,100755.37
2018-07-12T09:23:03.618Z,100756.42
2018-07-12T09:25:32.588Z,100755.08
2018-07-12T09:28:01.233Z,100761.97
2018-07-12T09:30:30.198Z,100759.58
2018-07-12T09:32:58.881Z,100764.77
2018-07-12T09:35:27.501Z,100770.52
2018-07-12T09:37:56.764Z,100768.78
2018-07-12T09:40:25.591Z,100766.59
2018-07-12T09:42:54.456Z,100765.50
2018-07-12T09:45:23.068Z,100775.84
2018-07-12T09:47:52.623Z,100774.55
2018-07-12T09:50:21.411Z,100778.78
2018-07-12T09:52:50.026Z,100782.54
2018-07-12T09:55:18.911Z,100786.12
2018-07-12T09:57:58.596Z,100785.22
2018-07-12T10:00:32.450Z,100786.84
2018-07-12T10:03:19.654Z,100783.25
2018-07-12T10:05:53.591Z,100776.86
2018-07-12T10:08:28.894Z,100785.37
2018-07-12T10:11:02.737Z,100780.27
2018-07-12T10:13:37.373Z,100790.67
2018-07-12T10:17:13.148Z,100787.14
2018-07-12T10:19:43.228Z,100782.77
2018-07-12T10:22:12.292Z,100788.97
2018-07-12T10:24:40.997Z,100786.34
2018-07-12T10:27:09.671Z,100782.45
2018-07-12T10:29:38.720Z,100794.09
2018-07-12T10:32:08.071Z,100798.60
2018-07-12T10:34:36.724Z,100806.98
2018-07-12T10:37:05.368Z,100804.53
2018-07-12T10:39:34.740Z,100807.81
2018-07-12T10:42:03.390Z,100810.59
2018-07-12T10:44:32.127Z,100817.00
2018-07-12T10:47:00.806Z,100820.50
2018-07-12T10:49:29.675Z,100829.11
2018-07-12T10:51:58.890Z,100826.15
2018-07-12T10:54:27.837Z,100833.85
2018-07-12T10:56:56.607Z,100833.70
2018-07-12T10:59:25.562Z,100831.03
2018-07-12T11:01:54.527Z,100833.97
2018-07-12T11:04:23.424Z,100835.77
2018-07-12T11:06:52.090Z,100831.30
2018-07-12T11:09:20.925Z,100831.09
2018-07-12T11:11:49.840Z,100832.86
2018-07-12T11:14:18.969Z,100829.80
2018-07-12T11:16:47.592Z,100836.91
2018-07-12T11:19:16.485Z,100827.31
2018-07-12T11:21:45.597Z,100835.31
2018-07-12T11:24:14.312Z,100837.03
2018-07-12T11:26:43.341Z,100841.49
2018-07-12T11:29:12.350Z,100834.73
2018-07-12T11:31:41.903Z,100840.37
2018-07-12T11:34:10.856Z,100841.90
2018-07-12T11:36:39.570Z,100834.92
2018-07-12T11:39:08.594Z,100847.56
2018-07-12T11:41:37.687Z,100848.68
2018-07-12T11:44:06.376Z,100849.23
2018-07-12T11:46:35.015Z,100860.34
2018-07-12T11:49:03.654Z,100852.31
2018-07-12T11:51:32.322Z,100850.95
2018-07-12T11:54:00.974Z,100850.96
2018-07-12T11:56:29.851Z,100851.34
2018-07-12T11:58:58.504Z,100851.00
2018-07-12T12:01:27.441Z,100856.47
2018-07-12T12:03:56.108Z,100851.54
2018-07-12T12:06:25.040Z,100851.32
2018-07-12T12:08:53.997Z,100854.44
2018-07-12T12:11:24.400Z,100857.40
2018-07-12T12:13:53.664Z,100863.25
2018-07-12T12:16:22.385Z,100851.53
2018-07-12T12:18:52.207Z,100856.92
2018-07-12T12:21:21.546Z,100861.45
2018-07-12T12:23:50.498Z,100862.51
2018-07-12T12:26:19.486Z,100867.32
2018-07-12T12:28:48.239Z,100864.56
2018-07-12T12:31:16.834Z,100869.41
2018-07-12T12:33:45.690Z,100866.55
2018-07-12T12:36:14.431Z,100866.93
2018-07-12T12:38:43.957Z,100870.84
2018-07-12T12:41:12.653Z,100875.50
2018-07-12T12:43:41.381Z,100872.73
2018-07-12T12:46:10.324Z,100870.67
2018-07-12T12:48:39.023Z,100869.41
2018-07-12T12:51:08.100Z,100869.09
2018-07-12T12:53:37.036Z,100874.84
2018-07-12T12:56:06.076Z,100871.13
2018-07-12T12:58:35.354Z,100874.30
2018-07-12T13:01:04.238Z,100872.36
2018-07-12T13:03:33.207Z,100868.05
2018-07-12T13:06:01.914Z,100876.58
2018-07-12T13:08:30.687Z,100877.52
2018-07-12T13:10:59.324Z,100879.25
2018-07-12T13:13:28.273Z,100873.32
2018-07-12T13:15:57.000Z,100871.59
2018-07-12T13:18:26.667Z,100875.48
2018-07-12T13:20:55.634Z,100866.67
2018-07-12T13:23:24.857Z,100882.78
2018-07-12T13:25:53.716Z,100879.42
2018-07-12T13:28:23.882Z,100885.25
2018-07-12T13:30:53.232Z,100884.45
2018-07-12T13:33:21.908Z,100888.21
2018-07-12T13:35:50.798Z,100888.53
2018-07-12T13:38:20.576Z,100887.28
2018-07-12T13:40:50.359Z,100887.17
2018-07-12T13:43:20.118Z,100890.77
2018-07-12T13:45:48.764Z,100886.75
2018-07-12T13:48:18.879Z,100894.07
2018-07-12T13:50:47.799Z,100898.91
2018-07-12T13:53:16.499Z,100900.21
2018-07-12T13:55:45.860Z,100900.61
2018-07-12T13:58:14.573Z,100898.09
2018-07-12T14:00:43.330Z,100896.97
2018-07-12T14:03:13.535Z,100897.30
2018-07-12T14:05:45.079Z,100892.30
2018-07-12T14:08:14.211Z,100889.27
2018-07-12T14:10:43.094Z,100892.28
2018-07-12T14:13:12.177Z,100888.45
2018-07-12T14:15:41.120Z,100891.63
2018-07-12T14:18:10.765Z,100889.11
2018-07-12T14:20:39.482Z,100882.20
2018-07-12T14:23:08.404Z,100887.92
2018-07-12T14:25:37.095Z,100890.63
2018-07-12T14:28:05.925Z,100885.51
2018-07-12T14:30:34.977Z,100885.61
2018-07-12T14:33:03.673Z,100881.48
2018-07-12T14:35:32.273Z,100873.08
2018-07-12T14:38:00.920Z,100872.11
2018-07-12T14:40:29.538Z,100864.20
2018-07-12T14:42:58.218Z,100869.16
2018-07-12T14:45:26.857Z,100871.91
2018-07-12T14:47:55.535Z,100870.28
2018-07-12T14:50:24.230Z,100874.88
2018-07-12T14:52:53.201Z,100879.51
2018-07-12T14:55:21.929Z,100883.43
2018-07-12T14:57:51.225Z,100882.58
2018-07-12T15:00:20.573Z,100876.72
2018-07-12T15:02:49.245Z,100876.25
2018-07-12T15:05:18.318Z,100880.84
2018-07-12T15:07:47.019Z,100887.19
2018-07-12T15:10:15.695Z,100882.82
2018-07-12T15:12:44.470Z,100883.50
2018-07-12T15:15:13.634Z,100890.28
2018-07-12T15:17:43.633Z,100885.82
2018-07-12T15:20:12.388Z,100892.84
2018-07-12T15:22:43.027Z,100891.16
2018-07-12T15:25:11.925Z,100892.81
2018-07-12T15:27:41.842Z,100898.53
2018-07-12T15:30:10.902Z,100901.72
2018-07-12T15:32:40.024Z,100898.39
2018-07-12T15:35:08.723Z,100906.02
2018-07-12T15:37:39.084Z,100900.44
2018-07-12T15:40:08.141Z,100904.89
2018-07-12T15:42:36.878Z,100904.59
2018-07-12T15:45:05.854Z,100904.87
2018-07-12T15:47:34.543Z,100904.61
2018-07-12T15:50:03.255Z,100912.31
2018-07-12T15:52:32.347Z,100919.21
2018-07-12T15:55:01.060Z,100916.07
2018-07-12T15:57:30.091Z,100920.63
2018-07-12T15:59:59.046Z,100918.44
2018-07-12T16:02:27.747Z,100919.09
2018-07-12T16:04:56.966Z,100923.92
2018-07-12T16:07:25.936Z,100925.16
2018-07-12T16:09:54.768Z,100929.91
2018-07-12T16:12:23.513Z,100933.86
2018-07-12T16:14:52.358Z,100935.67
2018-07-12T16:17:21.442Z,100929.09
2018-07-12T16:19:50.208Z,100926.16
2018-07-12T16:22:18.913Z,100929.39
2018-07-12T16:24:47.555Z,100934.80
2018-07-12T16:27:16.642Z,100930.22
2018-07-12T16:29:46.000Z,100922.63
2018-07-12T16:32:15.730Z,100926.39
2018-07-12T16:34:45.210Z,100922.21
2018-07-12T16:37:14.154Z,100926.13
2018-07-12T16:39:43.930Z,100927.14
2018-07-12T16:42:13.112Z,100926.77
2018-07-12T16:44:42.867Z,100933.41
2018-07-12T16:47:11.553Z,100938.53
2018-07-12T16:49:41.229Z,100935.22
2018-07-12T16:52:11.091Z,100940.59
2018-07-12T16:54:39.941Z,100941.13
2018-07-12T16:57:09.730Z,100946.66
2018-07-12T16:59:38.480Z,100941.66
2018-07-12T17:02:07.446Z,100949.55
2018-07-12T17:04:36.734Z,100945.59
2018-07-12T17:07:05.425Z,100941.57
2018-07-12T17:09:34.391Z,100938.06
2018-07-12T17:12:03.021Z,100945.73
2018-07-12T17:14:31.690Z,100940.12
2018-07-12T17:17:00.350Z,100935.93
2018-07-12T17:19:28.990Z,100946.15
2018-07-12T17:21:57.878Z,100943.02
2018-07-12T17:24:26.485Z,100942.41
2018-07-12T17:26:57.135Z,100945.29
2018-07-12T17:29:26.101Z,100947.61
2018-07-12T17:31:55.347Z,100940.94
2018-07-12T17:34:23.996Z,100937.59
2018-07-12T17:36:52.761Z,100942.03
2018-07-12T17:39:21.513Z,100949.09
2018-07-12T17:41:50.274Z,100946.66
2018-07-12T17:44:19.639Z,100951.80
2018-07-12T17:46:48.291Z,100950.20
2018-07-12T17:49:16.985Z,100959.74
2018-07-12T17:51:46.068Z,100957.64
2018-07-12T17:54:15.009Z,100957.47
2018-07-12T17:56:44.340Z,100960.48
2018-07-12T17:59:13.349Z,100961.00
2018-07-12T18:01:42.051Z,100964.45
2018-07-12T18:04:11.579Z,100964.18
2018-07-12T18:06:40.313Z,100967.68
2018-07-12T18:09:08.977Z,100963.63
2018-07-12T18:11:37.727Z,100966.06
2018-07-12T18:14:06.654Z,100968.45
2018-07-12T18:16:35.622Z,100974.17
2018-07-12T18:19:04.607Z,100972.04
2018-07-12T18:21:33.983Z,100976.40
2018-07-12T18:24:02.640Z,100976.18
2018-07-12T18:26:31.267Z,100973.78
2018-07-12T18:29:00.303Z,100976.48
2018-07-12T18:31:29.035Z,100975.35
2018-07-12T18:33:57.946Z,100977.75
2018-07-12T18:36:26.609Z,100984.52
2018-07-12T18:38:55.315Z,100986.47
2018-07-12T18:41:23.967Z,100982.94
2018-07-12T18:43:52.631Z,100986.78
2018-07-12T18:46:21.307Z,100986.47
2018-07-12T18:48:50.333Z,100984.30
2018-07-12T18:51:18.997Z,100992.71
2018-07-12T18:53:47.574Z,100988.12
2018-07-12T18:56:16.986Z,100994.36
2018-07-12T18:58:45.972Z,100995.63
2018-07-12T19:01:14.683Z,100995.11
2018-07-12T19:03:43.390Z,100994.28
2018-07-12T19:06:12.137Z,101001.56
2018-07-12T19:08:40.762Z,101011.03
2018-07-12T19:11:09.397Z,101005.84
2018-07-12T19:13:38.408Z,101010.95
2018-07-12T19:16:07.047Z,101011.20
2018-07-12T19:18:36.147Z,101019.01
2018-07-12T19:21:05.768Z,101013.81
2018-07-12T19:23:35.085Z,101014.26
2018-07-12T19:26:04.479Z,101019.39
2018-07-12T19:28:33.118Z,101023.36
2018-07-12T19:31:04.032Z,101032.83
2018-07-12T19:33:33.649Z,101033.56
2018-07-12T19:36:02.455Z,101036.80
2018-07-12T19:38:31.233Z,101040.85
2018-07-12T19:41:00.524Z,101040.55
2018-07-12T19:43:29.665Z,101034.87
2018-07-12T19:45:58.353Z,101045.07
2018-07-12T19:48:27.033Z,101052.88
2018-07-12T19:50:55.822Z,101050.91
2018-07-12T19:53:25.179Z,101056.32
2018-07-12T19:55:53.778Z,101057.67
2018-07-12T19:58:22.524Z,101063.08
2018-07-12T20:00:51.499Z,101062.55
2018-07-12T20:03:20.588Z,101057.09
2018-07-12T20:05:49.336Z,101057.89
2018-07-12T20:08:18.480Z,101058.66
2018-07-12T20:10:47.205Z,101054.52
2018-07-12T20:13:15.989Z,101058.27
2018-07-12T20:15:44.978Z,101056.91
2018-07-12T20:18:14.663Z,101054.43
2018-07-12T20:20:43.375Z,101057.66
2018-07-12T20:23:12.070Z,101051.20
2018-07-12T20:25:40.809Z,101053.08
2018-07-12T20:28:09.754Z,101049.55
2018-07-12T20:30:38.670Z,101050.10
2018-07-12T20:33:07.578Z,101053.33
2018-07-12T20:35:37.259Z,101053.02
2018-07-12T20:38:06.099Z,101050.84
2018-07-12T20:40:34.948Z,101057.08
2018-07-12T20:43:03.914Z,101054.95
2018-07-12T20:45:32.983Z,101056.03
2018-07-12T20:48:02.388Z,101061.44
2018-07-12T20:50:31.689Z,101057.30
2018-07-12T20:53:01.295Z,101069.45
2018-07-12T20:55:30.057Z,101072.68
2018-07-12T20:57:58.963Z,101070.50
2018-07-12T21:00:28.387Z,101066.97
2018-07-12T21:02:57.873Z,101077.56
2018-07-12T21:05:26.798Z,101069.98
2018-07-12T21:07:55.839Z,101077.04
2018-07-12T21:10:24.749Z,101075.16
2018-07-12T21:12:53.628Z,101076.95
2018-07-12T21:15:22.560Z,101080.27
2018-07-12T21:17:51.518Z,101080.48
2018-07-12T21:20:20.322Z,101077.47
2018-07-12T21:22:49.930Z,101078.09
2018-07-12T21:25:19.371Z,101089.42
2018-07-12T21:27:48.192Z,101088.28
2018-07-12T21:30:18.782Z,101084.23
2018-07-12T21:32:48.021Z,101087.77
2018-07-12T21:35:17.317Z,101085.80
2018-07-12T21:37:47.466Z,101089.85
2018-07-12T21:40:16.722Z,101086.62
2018-07-12T21:42:45.872Z,101090.98
2018-07-12T21:45:14.680Z,101092.80
2018-07-12T21:47:43.484Z,101090.84
2018-07-12T21:50:13.085Z,101089.14
2018-07-12T21:52:41.805Z,101091.84
2018-07-12T21:55:10.519Z,101096.24
2018-07-12T21:57:39.339Z,101090.50
2018-07-12T22:00:10.013Z,101095.59
2018-07-12T22:02:38.724Z,101100.69
2018-07-12T22:05:07.382Z,101109.56
2018-07-12T22:08:16.312Z,101116.45
2018-07-12T22:10:45.895Z,101113.68
2018-07-12T22:13:15.107Z,101111.19
2018-07-12T22:15:43.951Z,101111.19
2018-07-12T22:18:13.385Z,101112.23
2018-07-12T22:20:42.070Z,101107.66
2018-07-12T22:23:10.802Z,101108.80
2018-07-12T22:25:39.527Z,101114.78
2018-07-12T22:28:08.723Z,101120.50
2018-07-12T22:30:37.852Z,101120.59
2018-07-12T22:33:06.936Z,101119.77
2018-07-12T22:35:35.705Z,101118.72
2018-07-12T22:38:04.828Z,101116.02
2018-07-12T22:40:34.147Z,101123.51
2018-07-12T22:43:03.138Z,101129.95
2018-07-12T22:45:32.038Z,101123.35
2018-07-12T22:48:01.065Z,101113.70
2018-07-12T22:50:30.020Z,101127.00
2018-07-12T22:52:58.860Z,101121.81
2018-07-12T22:55:27.828Z,101127.22
2018-07-12T22:57:56.468Z,101119.94
2018-07-12T23:00:25.167Z,101111.53
2018-07-12T23:02:55.883Z,101115.52
2018-07-12T23:05:24.914Z,101114.17
2018-07-12T23:07:53.747Z,101116.66
2018-07-12T23:10:22.611Z,101112.08
2018-07-12T23:12:53.502Z,101109.23
2018-07-12T23:15:22.346Z,101111.93
2018-07-12T23:17:51.120Z,101110.89
2018-07-12T23:20:19.785Z,101103.61
2018-07-12T23:22:48.976Z,101105.48
2018-07-12T23:25:17.684Z,101110.58
2018-07-12T23:27:46.736Z,101108.61
2018-07-12T23:30:15.839Z,101108.92
2018-07-12T23:32:44.518Z,101105.91
2018-07-12T23:35:13.416Z,101109.38
2018-07-12T23:37:42.199Z,101113.43
2018-07-12T23:40:11.212Z,101106.06
2018-07-12T23:42:40.176Z,101102.01
2018-07-12T23:45:08.869Z,101109.59
2018-07-12T23:47:37.879Z,101108.77
2018-07-12T23:50:07.010Z,101108.45
2018-07-12T23:52:36.087Z,101106.80
2018-07-12T23:55:04.821Z,101107.53
2018-07-12T23:57:33.559Z,101108.61
